createdAt,value
2022-12-01T00:01:14.632Z,66.15
2022-12-01T00:03:43.353Z,63.92
2022-12-01T00:06:12.457Z,57.92
2022-12-01T00:08:39.211Z,66.85
2022-12-01T00:11:08.107Z,67.20
2022-12-01T00:13:36.326Z,68.32
2022-12-01T00:16:15.357Z,73.63
2022-12-01T00:18:42.448Z,66.72
2022-12-01T00:21:15.770Z,59.97
2022-12-01T00:23:49.746Z,61.45
2022-12-01T00:26:17.764Z,61.72
2022-12-01T00:28:45.008Z,60.53
2022-12-01T00:31:13.622Z,56.33
2022-12-01T00:33:40.203Z,59.65
2022-12-01T00:36:07.692Z,64.90
2022-12-01T00:38:35.304Z,63.88
2022-12-01T00:41:02.813Z,63.30
2022-12-01T00:43:29.716Z,55.97
2022-12-01T00:45:56.786Z,60.88
2022-12-01T00:48:23.811Z,59.97
2022-12-01T00:50:52.331Z,54.60
2022-12-01T00:53:19.228Z,57.80
2022-12-01T00:55:46.028Z,59.97
2022-12-01T00:58:12.801Z,63.13
2022-12-01T01:00:42.475Z,53.65
2022-12-01T01:03:10.159Z,60.25
2022-12-01T01:05:40.786Z,55.70
2022-12-01T01:08:12.512Z,62.28
2022-12-01T01:10:40.532Z,70.75
2022-12-01T01:13:09.789Z,64.40
2022-12-01T01:15:37.971Z,59.83
2022-12-01T01:18:05.427Z,56.97
2022-12-01T01:20:35.602Z,58.03
2022-12-01T01:23:02.243Z,57.63
2022-12-01T01:25:28.808Z,62.95
2022-12-01T01:27:55.441Z,58.75
2022-12-01T01:30:23.551Z,62.80
2022-12-01T01:32:50.222Z,59.03
2022-12-01T01:35:16.831Z,60.47
2022-12-01T01:37:45.753Z,56.70
2022-12-01T01:40:12.575Z,54.25
2022-12-01T01:42:39.174Z,54.88
2022-12-01T01:45:20.219Z,57.40
2022-12-01T01:47:48.528Z,57.05
2022-12-01T01:50:18.478Z,47.08
2022-12-01T01:52:52.624Z,49.85
2022-12-01T01:55:19.740Z,47.75
2022-12-01T01:57:46.693Z,47.60
2022-12-01T02:00:18.559Z,48.20
2022-12-01T02:02:47.351Z,53.13
2022-12-01T02:05:21.326Z,49.33
2022-12-01T02:07:48.779Z,50.60
2022-12-01T02:10:22.630Z,54.90
2022-12-01T02:12:52.185Z,70.55
2022-12-01T02:15:42.348Z,57.45
2022-12-01T02:18:32.010Z,65.22
2022-12-01T02:21:10.735Z,83.85
2022-12-01T02:23:40.329Z,112.32
2022-12-01T02:26:17.532Z,102.28
2022-12-01T02:29:02.414Z,87.15
2022-12-01T02:31:49.674Z,96.95
2022-12-01T02:34:38.113Z,84.70
2022-12-01T02:37:14.766Z,94.05
2022-12-01T02:40:01.521Z,80.82
2022-12-01T02:42:59.327Z,96.85
2022-12-01T02:45:34.417Z,92.85
2022-12-01T02:48:05.907Z,104.23
2022-12-01T02:50:35.768Z,107.18
2022-12-01T02:53:08.092Z,106.15
2022-12-01T02:55:34.812Z,106.18
2022-12-01T02:58:01.490Z,97.32
2022-12-01T03:00:30.971Z,75.07
2022-12-01T03:03:15.631Z,88.13
2022-12-01T03:06:18.595Z,72.28
2022-12-01T03:09:09.215Z,56.97
2022-12-01T03:12:00.662Z,59.80
2022-12-01T03:14:45.743Z,70.20
2022-12-01T03:17:19.976Z,66.85
2022-12-01T03:19:53.763Z,67.90
2022-12-01T03:22:26.020Z,70.05
2022-12-01T03:24:55.825Z,84.55
2022-12-01T03:27:28.135Z,78.60
2022-12-01T03:29:58.114Z,82.85
2022-12-01T03:32:33.614Z,70.72
2022-12-01T03:35:19.642Z,74.63
2022-12-01T03:37:57.748Z,78.18
2022-12-01T03:40:29.585Z,88.57
2022-12-01T03:42:59.652Z,77.85
2022-12-01T03:45:31.733Z,88.07
2022-12-01T03:47:58.748Z,96.70
2022-12-01T03:50:33.494Z,101.53
2022-12-01T03:53:13.422Z,86.40
2022-12-01T03:55:44.235Z,81.28
2022-12-01T03:58:20.507Z,108.03
2022-12-01T04:00:50.712Z,144.93
2022-12-01T04:03:23.054Z,101.40
2022-12-01T04:05:49.739Z,90.15
2022-12-01T04:08:17.113Z,107.93
2022-12-01T04:10:43.833Z,98.15
2022-12-01T16:56:01.188Z,137.93
2022-12-01T16:58:28.167Z,149.32
2022-12-01T17:00:54.928Z,190.63
2022-12-01T17:03:28.027Z,201.82
2022-12-01T17:05:59.250Z,201.13
2022-12-01T17:08:26.050Z,209.85
2022-12-01T17:10:54.837Z,248.88
2022-12-01T17:13:25.555Z,224.18
2022-12-01T17:15:54.262Z,197.77
2022-12-01T17:18:23.065Z,206.43
2022-12-01T17:21:00.914Z,200.07
2022-12-01T17:23:29.828Z,200.70
2022-12-01T17:25:56.711Z,199.13
2022-12-01T17:28:23.334Z,200.68
2022-12-01T17:30:50.135Z,210.52
2022-12-01T17:33:16.863Z,200.68
2022-12-01T17:35:43.587Z,207.38
2022-12-01T17:38:10.367Z,210.90
2022-12-01T17:40:37.155Z,187.98
2022-12-01T17:43:03.757Z,184.70
2022-12-01T17:45:30.400Z,193.77
2022-12-01T17:47:57.100Z,176.00
2022-12-01T17:50:23.682Z,184.18
2022-12-01T17:52:50.312Z,191.02
2022-12-01T17:55:19.664Z,253.02
2022-12-01T17:57:46.292Z,254.13
2022-12-01T18:00:14.728Z,231.00
2022-12-01T18:02:41.359Z,220.32
2022-12-01T18:05:08.405Z,221.65
2022-12-01T18:07:36.751Z,221.35
2022-12-01T18:10:03.965Z,205.88
2022-12-01T18:12:33.449Z,204.48
2022-12-01T18:15:00.030Z,182.98
2022-12-01T18:17:26.886Z,168.77
2022-12-01T18:19:53.560Z,176.93
2022-12-01T18:22:21.172Z,164.43
2022-12-01T18:24:48.082Z,166.05
2022-12-01T18:27:14.961Z,161.77
2022-12-01T18:29:42.451Z,165.63
2022-12-01T18:32:09.122Z,160.27
2022-12-01T18:34:35.739Z,163.15
2022-12-01T18:37:04.175Z,180.60
2022-12-01T18:39:30.774Z,165.25
2022-12-01T18:41:57.608Z,174.60
2022-12-01T18:44:25.110Z,197.63
2022-12-01T18:46:54.072Z,157.77
2022-12-01T18:49:20.947Z,182.18
2022-12-01T18:51:48.227Z,178.27
2022-12-01T18:54:17.238Z,178.77
2022-12-01T18:56:45.769Z,191.93
2022-12-01T18:59:13.873Z,204.25
2022-12-01T19:01:48.656Z,195.85
2022-12-01T19:04:17.275Z,236.02
2022-12-01T19:06:52.708Z,200.82
2022-12-01T19:09:22.304Z,238.48
2022-12-01T19:11:49.308Z,213.88
2022-12-01T19:14:22.049Z,212.30
2022-12-01T19:16:58.827Z,198.57
2022-12-01T19:19:26.368Z,219.15
2022-12-01T19:21:54.016Z,232.75
2022-12-01T19:24:23.281Z,260.27
2022-12-01T19:26:49.847Z,265.17
2022-12-01T19:29:16.684Z,243.23
2022-12-01T19:31:43.752Z,233.77
2022-12-01T19:34:13.605Z,251.90
2022-12-01T19:36:40.199Z,231.10
2022-12-01T19:39:07.844Z,232.00
2022-12-01T19:41:34.882Z,230.98
2022-12-01T19:44:02.260Z,237.45
2022-12-01T19:46:29.024Z,203.70
2022-12-01T19:49:00.212Z,178.52
2022-12-01T19:51:30.481Z,203.90
2022-12-01T19:53:58.474Z,211.32
2022-12-01T19:56:28.166Z,206.80
2022-12-01T19:58:55.982Z,199.32
2022-12-01T20:01:22.813Z,209.48
2022-12-01T20:03:51.476Z,206.50
2022-12-01T20:06:21.587Z,209.38
2022-12-01T20:08:48.619Z,225.05
2022-12-01T20:11:15.515Z,197.38
2022-12-01T20:13:45.017Z,223.77
2022-12-01T20:16:18.101Z,219.23
2022-12-01T20:18:47.332Z,224.18
2022-12-01T20:21:19.317Z,195.25
2022-12-01T20:23:51.492Z,202.10
2022-12-01T20:26:19.696Z,202.50
2022-12-01T20:28:49.034Z,195.18
2022-12-01T20:31:22.724Z,203.13
2022-12-01T20:33:50.701Z,199.18
2022-12-01T20:36:17.458Z,190.27
2022-12-01T20:38:44.145Z,170.65
2022-12-01T20:41:11.574Z,177.85
2022-12-01T20:43:38.422Z,171.32
2022-12-01T20:46:05.450Z,183.00
2022-12-01T20:48:32.940Z,161.73
2022-12-01T20:51:01.119Z,117.20
2022-12-01T20:53:28.375Z,154.45
2022-12-01T20:55:55.783Z,120.40
2022-12-01T20:58:22.459Z,134.07
2022-12-01T21:00:49.307Z,153.73
2022-12-01T21:03:15.883Z,158.75
2022-12-01T21:05:43.502Z,149.30
2022-12-01T21:08:13.937Z,153.07
2022-12-01T21:10:47.031Z,151.98
2022-12-01T21:13:42.813Z,148.48
2022-12-01T21:16:14.580Z,146.38
2022-12-01T21:19:08.078Z,137.18
2022-12-01T21:21:43.715Z,135.15
2022-12-01T21:24:21.204Z,134.20
2022-12-01T21:26:58.687Z,153.32
2022-12-01T21:29:39.420Z,161.80
2022-12-01T21:32:23.164Z,159.43
2022-12-01T21:34:50.202Z,182.00
2022-12-01T21:37:23.015Z,169.32
2022-12-01T21:39:57.711Z,172.90
2022-12-01T21:42:30.488Z,163.73
2022-12-01T21:44:57.683Z,161.95
2022-12-01T21:47:27.445Z,151.00
2022-12-01T21:49:56.899Z,137.18
2022-12-01T21:52:30.916Z,148.30
2022-12-01T21:55:08.965Z,140.20
2022-12-01T21:57:52.470Z,144.90
2022-12-01T22:00:36.830Z,134.80
2022-12-01T22:03:09.179Z,136.38
2022-12-01T22:05:41.505Z,147.43
2022-12-01T22:08:50.831Z,135.73
2022-12-01T22:11:23.151Z,140.35
2022-12-01T22:13:49.678Z,147.80
2022-12-01T22:16:22.498Z,136.32
2022-12-01T22:19:25.092Z,143.40
2022-12-01T22:22:02.497Z,156.13
2022-12-01T22:24:46.679Z,159.43
2022-12-01T22:27:23.341Z,148.75
2022-12-01T22:29:52.287Z,158.65
2022-12-01T22:32:44.196Z,157.82
2022-12-01T22:35:23.070Z,137.10
2022-12-01T22:41:05.989Z,147.93
2022-12-01T22:43:46.656Z,142.52
2022-12-01T22:46:29.432Z,125.78
2022-12-01T22:48:59.707Z,150.50
2022-12-01T22:51:29.514Z,145.27
2022-12-01T22:54:18.305Z,146.68
2022-12-01T22:56:48.935Z,153.15
2022-12-01T22:59:15.536Z,155.35
2022-12-01T23:01:48.678Z,152.32
2022-12-01T23:04:26.505Z,145.73
2022-12-01T23:07:17.991Z,146.82
2022-12-01T23:09:44.747Z,138.48
2022-12-01T23:12:11.242Z,146.05
2022-12-01T23:14:44.622Z,141.10
2022-12-01T23:17:16.617Z,141.73
2022-12-01T23:19:43.251Z,124.32
2022-12-01T23:22:11.034Z,136.38
2022-12-01T23:24:38.878Z,117.40
2022-12-01T23:27:06.606Z,129.73
2022-12-01T23:29:35.415Z,111.50
2022-12-01T23:32:02.093Z,109.22
2022-12-01T23:34:29.022Z,107.10
2022-12-01T23:36:56.600Z,153.05
2022-12-01T23:39:31.975Z,161.73
2022-12-01T23:41:59.580Z,148.88
2022-12-01T23:44:29.128Z,147.13
2022-12-01T23:46:57.782Z,149.30
2022-12-01T23:49:30.846Z,140.07
2022-12-01T23:52:01.128Z,145.43
2022-12-01T23:54:32.672Z,128.07
2022-12-01T23:57:24.283Z,119.43
2022-12-01T23:59:55.151Z,117.93
